Brilliant, Ohio
Current Conditions -  °F | °C
As of 10:53 AM on Friday 31 Oct 2014 (Local Time) from KHLG Reporting Station
Overcast Overcast  
Wind Chill: 41°   Ceiling: 7000
Heat Index: 45°   Visibility: 10mi
Dew Point: 36°   Wind: 7mph
Humidity: 71%   Direction: 270°W
Pressure: 29.94"   Gusts: NA
Location:  40.27°N, 80.62°W
Report Text: KHLG 311453Z 27006KT 10SM OVC070 07/02 A2994 RMK AO2 SLP145 T00720022 58005
Loading
Personal Weather Stations






























Interactive Weather Map
Tropical Storm Tracking
New forecast layout! Learn more

10-Day Weather Forecast

Advertisements
Track Severe Weather on mobile